Time;durP1;ratioP1;P1;durP2;ratioP2;P2;SDS_P1;SDS_P2;PMS_P1;PMS_P2;Temp;Humidity;BMP_temperature;BMP_pressure;BME280_temperature;BME280_humidity;BME280_pressure;Samples;Min_cycle;Max_cycle;Signal;HPM_P1;HPM_P2
2023/10/22 00:00:10;;;;;;;2.58;1.10;;;6.70;99.90;;;;;;4985699;28;20471;-59
2023/10/22 00:02:41;;;;;;;2.38;1.40;;;6.70;99.90;;;;;;4985564;28;20073;-58
2023/10/22 00:05:09;;;;;;;3.15;1.52;;;6.60;99.90;;;;;;4986900;28;20073;-59
2023/10/22 00:07:37;;;;;;;2.22;1.17;;;6.50;99.90;;;;;;4986240;28;20065;-59
2023/10/22 00:10:05;;;;;;;3.13;1.40;;;6.50;99.90;;;;;;4984934;28;20058;-59
2023/10/22 00:12:33;;;;;;;1.63;1.30;;;6.50;99.90;;;;;;4986253;28;20062;-57
2023/10/22 00:15:01;;;;;;;3.15;1.15;;;6.40;99.90;;;;;;4972133;28;20119;-57
2023/10/22 00:17:31;;;;;;;;;;;6.40;99.90;;;;;;4970379;28;20062;-58
2023/10/22 00:19:58;;;;;;;3.25;1.33;;;6.50;99.90;;;;;;4985391;28;19922;-58
2023/10/22 00:22:26;;;;;;;2.40;1.10;;;6.50;99.90;;;;;;4989519;28;20058;-57
2023/10/22 00:24:53;;;;;;;2.85;0.90;;;6.50;99.90;;;;;;4977206;28;20046;-58
2023/10/22 00:27:21;;;;;;;4.57;0.90;;;6.50;99.90;;;;;;4989603;28;20069;-57
2023/10/22 00:29:49;;;;;;;2.15;1.05;;;6.50;99.90;;;;;;4987612;28;20053;-58
2023/10/22 00:32:17;;;;;;;1.35;1.02;;;6.50;99.90;;;;;;4989797;28;20422;-57
2023/10/22 00:34:45;;;;;;;1.50;1.10;;;6.50;99.90;;;;;;4989154;28;20038;-58
2023/10/22 00:37:12;;;;;;;1.98;1.00;;;6.50;99.90;;;;;;4987842;28;20042;-58
2023/10/22 00:39:41;;;;;;;1.48;0.68;;;6.50;99.90;;;;;;4982141;28;20214;-58
2023/10/22 00:42:10;;;;;;;1.55;0.98;;;6.50;99.90;;;;;;4968867;28;20074;-58
2023/10/22 00:44:38;;;;;;;3.72;0.98;;;6.50;99.90;;;;;;4974790;28;20570;-58
2023/10/22 00:47:09;;;;;;;1.20;0.90;;;6.50;99.90;;;;;;4968815;28;20506;-57
2023/10/22 00:49:37;;;;;;;2.88;1.50;;;6.60;99.90;;;;;;4983589;28;20577;-58
2023/10/22 00:52:04;;;;;;;2.50;1.00;;;6.60;99.90;;;;;;4984064;28;20049;-58
2023/10/22 00:54:32;;;;;;;1.90;0.82;;;6.60;99.90;;;;;;4977285;28;20053;-58
2023/10/22 00:57:02;;;;;;;1.92;1.00;;;6.60;99.90;;;;;;4975539;28;20507;-58
2023/10/22 00:59:30;;;;;;;3.08;1.10;;;6.60;99.90;;;;;;4973189;28;20051;-57
2023/10/22 01:01:58;;;;;;;2.15;0.73;;;6.70;99.90;;;;;;4968230;28;20046;-58
2023/10/22 01:04:26;;;;;;;3.10;1.00;;;6.70;99.90;;;;;;4981071;28;20049;-57
2023/10/22 01:06:54;;;;;;;3.55;0.80;;;6.80;99.90;;;;;;4973009;28;20062;-57
2023/10/22 01:09:21;;;;;;;3.67;1.00;;;6.80;99.90;;;;;;4982174;28;20046;-58
2023/10/22 01:12:01;;;;;;;3.78;1.02;;;6.90;99.90;;;;;;4972419;28;20051;-58
2023/10/22 01:14:29;;;;;;;2.97;0.98;;;6.90;99.90;;;;;;4966732;28;20062;-58
2023/10/22 01:16:57;;;;;;;1.38;0.93;;;6.90;99.90;;;;;;4986841;28;20410;-58
2023/10/22 01:19:25;;;;;;;1.45;0.75;;;6.90;99.90;;;;;;4975358;28;20482;-58
2023/10/22 01:21:53;;;;;;;3.58;0.77;;;7.00;99.90;;;;;;4987267;28;20050;-57
2023/10/22 01:24:20;;;;;;;1.92;0.77;;;6.90;99.90;;;;;;4979830;28;20981;-58
2023/10/22 01:26:48;;;;;;;17.05;1.27;;;7.00;99.90;;;;;;4968561;28;20046;-58
2023/10/22 01:29:16;;;;;;;2.63;1.00;;;7.00;99.90;;;;;;4978323;28;20054;-58
2023/10/22 01:31:44;;;;;;;1.85;0.90;;;7.00;99.90;;;;;;4950522;28;20054;-58
2023/10/22 01:34:12;;;;;;;2.38;1.05;;;7.10;99.90;;;;;;4990262;28;20046;-58
2023/10/22 01:36:41;;;;;;;1.50;0.90;;;7.10;99.90;;;;;;4994013;28;20042;-58
2023/10/22 01:39:13;;;;;;;2.95;0.80;;;7.10;99.90;;;;;;4994323;28;20057;-58
2023/10/22 01:41:41;;;;;;;3.83;1.10;;;7.10;99.90;;;;;;4982322;28;20043;-57
2023/10/22 01:44:09;;;;;;;9.27;0.88;;;7.10;99.90;;;;;;4994252;28;20061;-58
2023/10/22 01:46:36;;;;;;;3.17;0.90;;;7.10;99.90;;;;;;4986009;28;20043;-58
2023/10/22 01:49:04;;;;;;;3.22;0.93;;;7.10;99.90;;;;;;4976007;28;20081;-58
2023/10/22 01:51:32;;;;;;;4.78;1.00;;;7.10;99.90;;;;;;4975561;28;20491;-57
2023/10/22 01:54:01;;;;;;;1.70;0.73;;;7.10;99.90;;;;;;4993416;28;20043;-58
2023/10/22 01:56:29;;;;;;;3.38;0.70;;;7.10;99.90;;;;;;4993798;28;20053;-58
2023/10/22 01:58:56;;;;;;;3.30;0.80;;;7.10;99.90;;;;;;4988977;28;20406;-58
2023/10/22 02:01:26;;;;;;;1.02;0.70;;;7.10;99.90;;;;;;4994204;28;20042;-58
2023/10/22 02:03:54;;;;;;;1.63;0.65;;;7.10;99.90;;;;;;4994419;28;20054;-58
2023/10/22 02:06:22;;;;;;;7.82;1.50;;;7.00;99.90;;;;;;4989823;28;20053;-58
2023/10/22 02:08:50;;;;;;;1.17;0.68;;;7.10;99.90;;;;;;4995366;28;20054;-58
2023/10/22 02:11:19;;;;;;;9.07;0.90;;;7.10;99.90;;;;;;4995003;28;20058;-58
2023/10/22 02:13:46;;;;;;;1.65;0.90;;;7.10;99.90;;;;;;4995213;28;20045;-58
2023/10/22 02:16:14;;;;;;;1.65;1.00;;;7.10;99.90;;;;;;4992650;28;20442;-58
2023/10/22 02:18:42;;;;;;;5.30;0.70;;;7.10;99.90;;;;;;4979271;28;20054;-58
2023/10/22 02:21:10;;;;;;;2.58;0.80;;;7.20;99.90;;;;;;4975438;28;20051;-58
2023/10/22 02:23:39;;;;;;;2.63;0.70;;;7.20;99.90;;;;;;4985857;28;20055;-57
2023/10/22 02:26:09;;;;;;;1.52;0.80;;;7.20;99.90;;;;;;4975379;28;20046;-58
2023/10/22 02:28:37;;;;;;;1.75;0.65;;;7.20;99.90;;;;;;4989849;28;20043;-57
2023/10/22 02:31:04;;;;;;;1.55;0.60;;;7.20;99.90;;;;;;4975339;28;20042;-58
2023/10/22 02:33:33;;;;;;;3.90;0.70;;;7.20;99.90;;;;;;4975553;28;20446;-58
2023/10/22 02:36:03;;;;;;;2.40;0.88;;;7.20;99.90;;;;;;4975357;28;20042;-58
2023/10/22 02:38:32;;;;;;;2.63;0.75;;;7.20;99.90;;;;;;4979277;28;20509;-58
2023/10/22 02:40:59;;;;;;;4.05;0.90;;;7.20;99.90;;;;;;4980976;28;20053;-58
2023/10/22 02:43:27;;;;;;;2.78;0.70;;;7.30;99.90;;;;;;4989363;28;20425;-58
2023/10/22 02:45:55;;;;;;;4.15;0.95;;;7.30;99.90;;;;;;4993643;28;20054;-62
2023/10/22 02:48:23;;;;;;;6.00;0.70;;;7.30;99.90;;;;;;4994429;28;20050;-56
2023/10/22 02:50:51;;;;;;;0.88;0.50;;;7.40;99.90;;;;;;4994624;28;20054;-57
2023/10/22 02:53:19;;;;;;;3.70;1.60;;;7.40;99.90;;;;;;4991302;28;20399;-57
2023/10/22 02:55:47;;;;;;;0.90;0.70;;;7.40;99.90;;;;;;4984032;28;20043;-57
2023/10/22 02:58:15;;;;;;;3.40;0.50;;;7.40;99.90;;;;;;4983682;28;20053;-57
2023/10/22 03:00:42;;;;;;;4.47;0.73;;;7.40;99.90;;;;;;4991387;28;20053;-57
2023/10/22 03:03:10;;;;;;;1.85;0.60;;;7.40;99.90;;;;;;4986185;28;20058;-57
2023/10/22 03:05:38;;;;;;;2.70;0.70;;;7.40;99.90;;;;;;4974355;28;20654;-57
2023/10/22 03:08:06;;;;;;;0.52;0.52;;;7.40;99.90;;;;;;4982526;28;20458;-56
2023/10/22 03:10:37;;;;;;;2.53;1.52;;;7.30;99.90;;;;;;4994051;28;20050;-57
2023/10/22 03:13:05;;;;;;;1.10;0.63;;;7.20;99.90;;;;;;4991721;28;20050;-56
2023/10/22 03:15:34;;;;;;;2.20;0.90;;;7.20;99.90;;;;;;4992692;28;20050;-56
2023/10/22 03:18:03;;;;;;;2.17;0.50;;;7.10;99.90;;;;;;4992100;28;20047;-56
2023/10/22 03:20:33;;;;;;;1.35;0.70;;;7.10;99.90;;;;;;4993059;28;20046;-57
2023/10/22 03:23:03;;;;;;;1.48;0.77;;;7.10;99.90;;;;;;4988487;28;20062;-57
2023/10/22 03:25:34;;;;;;;3.20;0.90;;;7.10;99.90;;;;;;4974370;28;20043;-56
2023/10/22 03:28:02;;;;;;;3.67;0.70;;;7.10;99.90;;;;;;4981328;28;20053;-56
2023/10/22 03:30:29;;;;;;;0.50;0.50;;;7.10;99.90;;;;;;4974238;28;20059;-57
2023/10/22 03:32:58;;;;;;;2.80;0.80;;;7.00;99.90;;;;;;4984866;28;20049;-57
2023/10/22 03:35:27;;;;;;;2.95;0.60;;;7.00;99.90;;;;;;4973912;28;20304;-56
2023/10/22 03:37:56;;;;;;;3.95;0.75;;;7.00;99.90;;;;;;4986440;28;20051;-56
2023/10/22 03:40:24;;;;;;;1.45;0.80;;;6.90;99.90;;;;;;4976885;28;20058;-56
2023/10/22 03:42:51;;;;;;;2.35;0.70;;;6.90;99.90;;;;;;4984012;28;20398;-56
2023/10/22 03:45:19;;;;;;;0.73;0.45;;;6.90;99.90;;;;;;4976155;28;20055;-56
2023/10/22 03:47:47;;;;;;;1.38;0.52;;;6.80;99.90;;;;;;4990996;28;20038;-56
2023/10/22 03:50:15;;;;;;;0.80;0.50;;;6.70;99.90;;;;;;4993398;28;20391;-56
2023/10/22 03:52:42;;;;;;;2.13;0.50;;;6.70;99.90;;;;;;4990310;28;20069;-56
2023/10/22 03:55:11;;;;;;;1.77;0.70;;;6.70;99.90;;;;;;4971956;28;20066;-58
2023/10/22 03:57:38;;;;;;;1.13;0.70;;;6.60;99.90;;;;;;4976059;28;20038;-58
2023/10/22 04:00:07;;;;;;;1.33;0.70;;;6.50;99.90;;;;;;4989049;28;20046;-59
2023/10/22 04:02:38;;;;;;;2.35;0.73;;;6.50;99.90;;;;;;4993343;28;20034;-59
2023/10/22 04:05:08;;;;;;;1.45;0.60;;;6.40;99.90;;;;;;4979670;28;20069;-59
2023/10/22 04:07:36;;;;;;;0.57;0.57;;;6.30;99.90;;;;;;4985603;28;20050;-59
2023/10/22 04:10:09;;;;;;;1.15;0.85;;;6.30;99.90;;;;;;4989955;28;20042;-58
2023/10/22 04:12:37;;;;;;;0.73;0.73;;;6.20;99.90;;;;;;4973178;28;20054;-58
2023/10/22 04:15:06;;;;;;;1.48;1.05;;;6.20;99.90;;;;;;4986596;28;20050;-59
2023/10/22 04:17:34;;;;;;;3.92;1.00;;;6.10;99.90;;;;;;4992791;28;20038;-59
2023/10/22 04:20:05;;;;;;;1.35;0.80;;;6.10;99.90;;;;;;4992802;28;20400;-59
2023/10/22 04:22:33;;;;;;;1.20;1.00;;;6.00;99.90;;;;;;4992998;28;20049;-58
2023/10/22 04:25:04;;;;;;;1.95;1.00;;;5.90;99.90;;;;;;4976633;28;20043;-58
2023/10/22 04:27:32;;;;;;;3.63;1.00;;;5.80;99.90;;;;;;4985689;28;20061;-58
2023/10/22 04:29:59;;;;;;;2.15;0.93;;;5.80;99.90;;;;;;4991029;28;20053;-59
2023/10/22 04:32:27;;;;;;;2.35;0.80;;;5.70;99.90;;;;;;4987960;28;20050;-59
2023/10/22 04:34:55;;;;;;;4.72;0.90;;;5.70;99.90;;;;;;4980863;28;20065;-58
2023/10/22 04:37:23;;;;;;;3.95;1.30;;;5.60;99.90;;;;;;4973365;28;20050;-58
2023/10/22 04:39:51;;;;;;;1.65;1.10;;;5.60;99.90;;;;;;4985707;28;20053;-58
2023/10/22 04:42:19;;;;;;;3.50;1.45;;;5.60;99.90;;;;;;4988190;28;20042;-58
2023/10/22 04:44:46;;;;;;;4.70;1.20;;;5.50;99.90;;;;;;4981829;28;20042;-58
2023/10/22 04:47:14;;;;;;;3.22;1.15;;;5.50;99.90;;;;;;4984167;28;20043;-59
2023/10/22 04:49:44;;;;;;;3.78;1.50;;;5.50;99.90;;;;;;4987683;28;20050;-59
2023/10/22 04:52:21;;;;;;;6.25;1.98;;;5.40;99.90;;;;;;4989357;28;20057;-59
2023/10/22 04:54:49;;;;;;;1.50;0.90;;;5.40;99.90;;;;;;4978860;28;20047;-59
2023/10/22 04:57:17;;;;;;;6.47;1.20;;;5.40;99.90;;;;;;4971217;28;20053;-59
2023/10/22 04:59:45;;;;;;;3.10;1.20;;;5.40;99.90;;;;;;4987765;28;20051;-59
2023/10/22 05:02:13;;;;;;;1.85;0.95;;;5.40;99.90;;;;;;4980987;28;20050;-59
2023/10/22 05:04:40;;;;;;;1.65;0.90;;;5.40;99.90;;;;;;4980677;28;20524;-59
2023/10/22 05:07:08;;;;;;;3.45;1.02;;;5.40;99.90;;;;;;4964318;28;20059;-59
2023/10/22 05:09:36;;;;;;;1.30;1.05;;;5.40;99.90;;;;;;4975832;28;20050;-59
2023/10/22 05:12:04;;;;;;;1.83;1.00;;;5.40;99.90;;;;;;4984163;28;20042;-59
2023/10/22 05:14:32;;;;;;;3.88;0.98;;;5.40;99.90;;;;;;4978345;28;20047;-59
2023/10/22 05:16:59;;;;;;;3.67;1.38;;;5.40;99.90;;;;;;4978684;28;20054;-59
2023/10/22 05:19:27;;;;;;;3.28;1.20;;;5.40;99.90;;;;;;4987763;28;20038;-59
2023/10/22 05:21:55;;;;;;;6.97;2.03;;;5.30;99.90;;;;;;4988612;28;20051;-59
2023/10/22 05:24:23;;;;;;;2.60;1.17;;;5.30;99.90;;;;;;4965579;28;20506;-59
2023/10/22 05:26:51;;;;;;;3.55;1.30;;;5.20;99.90;;;;;;4966663;28;20043;-59
2023/10/22 05:29:19;;;;;;;5.55;1.40;;;5.30;99.90;;;;;;4983397;28;20053;-58
2023/10/22 05:31:46;;;;;;;3.15;1.20;;;5.20;99.90;;;;;;4984893;28;20490;-59
2023/10/22 05:34:14;;;;;;;3.63;1.50;;;5.20;99.90;;;;;;4979497;28;20051;-58
2023/10/22 05:36:42;;;;;;;2.53;1.38;;;5.10;99.90;;;;;;4978748;28;20039;-57
2023/10/22 05:39:09;;;;;;;3.50;1.40;;;5.10;99.90;;;;;;4972667;28;20071;-57
2023/10/22 05:41:38;;;;;;;7.40;3.50;;;5.10;99.90;;;;;;4976647;28;20490;-59
2023/10/22 05:44:05;;;;;;;3.70;1.60;;;5.10;99.90;;;;;;4976595;28;20050;-58
2023/10/22 05:46:34;;;;;;;4.40;1.95;;;5.00;99.90;;;;;;4975563;28;20046;-58
2023/10/22 05:49:03;;;;;;;7.78;1.52;;;5.00;99.90;;;;;;4967056;28;20046;-57
2023/10/22 05:51:35;;;;;;;2.00;1.73;;;4.90;99.90;;;;;;4974367;28;20048;-57
2023/10/22 05:54:06;;;;;;;2.35;1.60;;;4.90;99.90;;;;;;4987211;28;20046;-57
2023/10/22 05:56:36;;;;;;;6.00;1.85;;;4.90;99.90;;;;;;4982693;28;20061;-58
2023/10/22 05:59:08;;;;;;;4.43;1.60;;;4.80;99.90;;;;;;4979525;28;20066;-58
2023/10/22 06:01:41;;;;;;;3.78;1.60;;;4.80;99.90;;;;;;4969752;28;20046;-58
2023/10/22 06:04:09;;;;;;;5.25;2.10;;;4.70;99.90;;;;;;4986923;28;20050;-59
2023/10/22 06:06:37;;;;;;;4.75;1.48;;;4.70;99.90;;;;;;4988136;28;20057;-59
2023/10/22 06:09:05;;;;;;;4.05;1.98;;;4.60;99.90;;;;;;4982829;28;20051;-59
2023/10/22 06:11:34;;;;;;;4.80;2.55;;;4.60;99.90;;;;;;4986734;28;20595;-59
2023/10/22 06:14:02;;;;;;;5.07;2.30;;;4.60;99.90;;;;;;4982667;28;20042;-59
2023/10/22 06:16:31;;;;;;;6.40;2.10;;;4.50;99.90;;;;;;4987641;28;20057;-59
2023/10/22 06:18:59;;;;;;;3.67;1.92;;;4.60;99.90;;;;;;4987069;28;20043;-59
2023/10/22 06:21:27;;;;;;;6.50;2.70;;;4.60;99.90;;;;;;4972287;28;20058;-59
2023/10/22 06:23:55;;;;;;;6.18;2.88;;;4.50;99.90;;;;;;4984383;28;20035;-58
2023/10/22 06:26:22;;;;;;;4.20;2.20;;;4.50;99.90;;;;;;4974368;28;20050;-58
2023/10/22 06:28:51;;;;;;;7.47;1.90;;;4.50;99.90;;;;;;4983636;28;20045;-60
2023/10/22 06:31:18;;;;;;;8.18;2.13;;;4.50;99.90;;;;;;4968449;28;20051;-60
2023/10/22 06:33:46;;;;;;;4.35;1.70;;;4.40;99.90;;;;;;4978186;28;20058;-59
2023/10/22 06:36:20;;;;;;;5.43;1.77;;;4.40;99.90;;;;;;4988511;28;20496;-59
2023/10/22 06:38:49;;;;;;;4.72;2.33;;;4.40;99.90;;;;;;4982520;28;20054;-60
2023/10/22 06:41:22;;;;;;;5.55;2.45;;;4.30;99.90;;;;;;4976581;28;20406;-60
2023/10/22 06:43:50;;;;;;;6.28;2.40;;;4.30;99.90;;;;;;4966562;28;20047;-60
2023/10/22 06:46:18;;;;;;;5.80;2.22;;;4.30;99.90;;;;;;4989533;28;20058;-59
2023/10/22 06:48:47;;;;;;;4.45;2.80;;;4.30;99.90;;;;;;4990968;28;20528;-60
2023/10/22 06:51:27;;;;;;;3.97;2.58;;;4.20;99.90;;;;;;4991395;28;20046;-59
2023/10/22 06:53:55;;;;;;;;;;;4.20;99.90;;;;;;4985368;28;20069;-59
2023/10/22 06:56:22;;;;;;;8.20;3.22;;;4.20;99.90;;;;;;4971649;28;19937;-59
2023/10/22 06:58:50;;;;;;;7.53;3.45;;;4.20;99.90;;;;;;4983500;28;20038;-60
2023/10/22 07:01:19;;;;;;;6.82;3.55;;;4.20;99.90;;;;;;4978041;28;20059;-60
2023/10/22 07:03:47;;;;;;;5.10;3.92;;;4.20;99.90;;;;;;4972062;28;20043;-59
2023/10/22 07:06:15;;;;;;;8.90;3.33;;;4.30;99.90;;;;;;4967504;28;20066;-59
2023/10/22 07:08:43;;;;;;;6.60;4.05;;;4.30;99.90;;;;;;4982522;28;20053;-59
2023/10/22 07:11:11;;;;;;;7.22;3.70;;;4.30;99.90;;;;;;4988787;28;20057;-59
2023/10/22 07:13:39;;;;;;;7.68;3.47;;;4.20;99.90;;;;;;4982533;28;20050;-60
2023/10/22 07:16:08;;;;;;;5.68;3.65;;;4.30;99.90;;;;;;4975606;28;20474;-60
2023/10/22 07:18:36;;;;;;;12.35;3.80;;;4.30;99.90;;;;;;4990715;28;20049;-58
2023/10/22 07:21:04;;;;;;;9.88;4.57;;;4.30;99.90;;;;;;4988251;28;20053;-59
2023/10/22 07:23:32;;;;;;;8.18;4.00;;;4.30;99.90;;;;;;4977385;28;20043;-60
2023/10/22 07:26:01;;;;;;;6.13;3.70;;;4.30;99.90;;;;;;4971700;28;20056;-60
2023/10/22 07:28:29;;;;;;;6.78;3.70;;;4.40;99.90;;;;;;4981182;28;20398;-60
2023/10/22 07:30:57;;;;;;;7.57;3.75;;;4.40;99.90;;;;;;4985152;28;20046;-60
2023/10/22 07:33:26;;;;;;;7.20;3.97;;;4.40;99.90;;;;;;4984257;28;20510;-58
2023/10/22 07:35:56;;;;;;;5.80;3.53;;;4.50;99.90;;;;;;4970912;28;20051;-60
2023/10/22 07:38:24;;;;;;;7.47;3.90;;;4.50;99.90;;;;;;4980694;28;20054;-60
2023/10/22 07:40:55;;;;;;;12.88;3.50;;;4.50;99.90;;;;;;4975275;28;20047;-59
2023/10/22 07:43:26;;;;;;;10.00;3.83;;;4.50;99.90;;;;;;4976575;28;20046;-59
2023/10/22 07:45:59;;;;;;;5.68;3.67;;;4.60;99.90;;;;;;4988718;28;20054;-59
2023/10/22 07:48:27;;;;;;;6.97;3.53;;;4.60;99.90;;;;;;4988243;28;20054;-59
2023/10/22 07:50:55;;;;;;;7.35;3.67;;;4.70;99.90;;;;;;4954943;28;20054;-60
2023/10/22 07:53:22;;;;;;;6.78;3.28;;;4.70;99.90;;;;;;4980630;28;20049;-58
2023/10/22 07:55:50;;;;;;;9.98;3.80;;;4.80;99.90;;;;;;4976325;28;20368;-59
2023/10/22 07:58:18;;;;;;;6.68;3.92;;;4.80;99.90;;;;;;4958936;28;20054;-59
2023/10/22 08:00:45;;;;;;;5.80;3.70;;;4.90;99.90;;;;;;4969468;28;20042;-59
2023/10/22 08:03:13;;;;;;;8.20;3.88;;;4.90;99.90;;;;;;4981754;28;20047;-59
2023/10/22 08:05:41;;;;;;;6.97;3.47;;;5.00;99.90;;;;;;4969703;28;20047;-59
2023/10/22 08:08:09;;;;;;;5.03;3.60;;;5.00;99.90;;;;;;4989610;28;20059;-59
2023/10/22 08:10:36;;;;;;;9.00;3.70;;;5.10;99.90;;;;;;4988258;28;20050;-59
2023/10/22 08:13:05;;;;;;;10.13;4.38;;;5.20;99.90;;;;;;4973101;28;20050;-59
2023/10/22 08:15:34;;;;;;;6.32;3.72;;;5.20;99.90;;;;;;4985553;28;20049;-59
2023/10/22 08:18:05;;;;;;;;;;;5.30;99.90;;;;;;4965714;28;20062;-58
2023/10/22 08:20:33;;;;;;;6.63;3.92;;;5.40;99.90;;;;;;4969333;28;19922;-57
2023/10/22 08:23:01;;;;;;;6.72;3.63;;;5.40;99.90;;;;;;4983757;28;20076;-57
2023/10/22 08:25:32;;;;;;;7.80;3.40;;;5.50;99.90;;;;;;4979823;28;20039;-57
2023/10/22 08:28:00;;;;;;;7.20;3.88;;;5.50;99.90;;;;;;4976438;28;20096;-57
2023/10/22 08:30:28;;;;;;;7.07;3.80;;;5.60;99.90;;;;;;4979158;28;20054;-60
2023/10/22 08:32:55;;;;;;;7.85;4.13;;;5.70;99.90;;;;;;4975957;28;20059;-58
2023/10/22 08:35:25;;;;;;;6.97;3.80;;;5.80;99.90;;;;;;4977163;28;20050;-57
2023/10/22 08:37:52;;;;;;;7.55;3.90;;;5.90;99.90;;;;;;4987961;28;20403;-57
2023/10/22 08:40:22;;;;;;;6.03;3.80;;;5.90;99.90;;;;;;4982189;28;20054;-57
2023/10/22 08:42:53;;;;;;;6.03;4.13;;;6.10;99.90;;;;;;4974261;28;20046;-57
2023/10/22 08:45:20;;;;;;;8.13;3.63;;;6.10;99.90;;;;;;4989114;28;20069;-58
2023/10/22 08:47:48;;;;;;;6.97;3.70;;;6.20;99.90;;;;;;4974523;28;20052;-57
2023/10/22 08:50:17;;;;;;;6.45;3.75;;;6.30;99.90;;;;;;4968689;28;20050;-58
2023/10/22 08:52:45;;;;;;;6.70;3.42;;;6.40;99.90;;;;;;4976091;28;20047;-57
2023/10/22 08:55:13;;;;;;;4.40;3.45;;;6.50;99.90;;;;;;4987079;28;20395;-57
2023/10/22 08:57:41;;;;;;;3.70;2.33;;;6.60;99.90;;;;;;4989165;28;20046;-57
2023/10/22 09:00:13;;;;;;;4.13;2.85;;;6.80;99.90;;;;;;4986143;28;20050;-57
2023/10/22 09:02:43;;;;;;;5.50;1.92;;;6.90;99.90;;;;;;4989104;28;20042;-57
2023/10/22 09:05:11;;;;;;;;;;;7.00;99.90;;;;;;4972777;28;20043;-57
2023/10/22 09:07:52;;;;;;;5.07;2.13;;;7.10;99.90;;;;;;4986624;28;19922;-58
2023/10/22 09:10:29;;;;;;;4.32;1.75;;;7.20;99.90;;;;;;4983559;28;20105;-59
2023/10/22 09:13:16;;;;;;;3.67;2.03;;;7.40;99.90;;;;;;4988654;28;20034;-58
2023/10/22 09:15:45;;;;;;;3.70;1.70;;;7.50;99.90;;;;;;4989021;28;20145;-57
2023/10/22 09:18:15;;;;;;;5.80;1.70;;;7.70;99.90;;;;;;4983232;28;20380;-57
2023/10/22 09:20:47;;;;;;;7.10;1.50;;;7.80;99.90;;;;;;4968716;28;20051;-57
2023/10/22 09:23:20;;;;;;;3.10;1.20;;;7.90;99.90;;;;;;4981488;28;20046;-57
2023/10/22 09:25:50;;;;;;;1.92;1.02;;;8.10;99.90;;;;;;4979180;28;20513;-57
2023/10/22 09:28:26;;;;;;;7.78;1.45;;;8.20;99.90;;;;;;4977536;28;20053;-57
2023/10/22 09:30:58;;;;;;;2.67;1.10;;;8.40;99.90;;;;;;4986601;28;20521;-58
2023/10/22 09:33:39;;;;;;;2.38;1.15;;;8.50;99.90;;;;;;4982321;28;20054;-57
2023/10/22 09:36:10;;;;;;;6.25;1.40;;;8.60;99.90;;;;;;4967904;28;20050;-58
2023/10/22 09:38:49;;;;;;;6.45;1.30;;;8.80;99.90;;;;;;4970439;28;20035;-58
2023/10/22 09:41:23;;;;;;;2.60;1.00;;;8.90;99.90;;;;;;4962047;28;20541;-58
2023/10/22 09:43:57;;;;;;;2.75;0.80;;;9.10;99.90;;;;;;4981951;28;20057;-58
2023/10/22 09:46:30;;;;;;;3.08;1.50;;;9.20;99.90;;;;;;4977990;28;20042;-58
2023/10/22 09:49:00;;;;;;;5.75;2.03;;;9.30;99.90;;;;;;4980741;28;20050;-58
2023/10/22 09:51:31;;;;;;;5.70;1.20;;;9.40;99.90;;;;;;4955448;28;20510;-58
2023/10/22 09:54:06;;;;;;;6.10;1.27;;;9.60;99.90;;;;;;4985363;28;20051;-58
2023/10/22 09:56:50;;;;;;;1.77;1.08;;;9.70;99.90;;;;;;4980806;28;20043;-58
2023/10/22 09:59:22;;;;;;;4.40;1.20;;;9.80;99.90;;;;;;4990303;28;20049;-57
2023/10/22 10:01:50;;;;;;;13.38;2.25;;;9.90;99.90;;;;;;4977923;28;20058;-58
2023/10/22 10:04:20;;;;;;;5.88;1.35;;;10.00;99.90;;;;;;4991046;28;20050;-58
2023/10/22 10:06:51;;;;;;;3.15;1.20;;;10.10;99.90;;;;;;4974525;28;20054;-58
2023/10/22 10:09:20;;;;;;;6.13;1.17;;;10.20;99.90;;;;;;4988041;28;20065;-57
2023/10/22 10:11:49;;;;;;;1.85;1.00;;;10.30;99.90;;;;;;4977532;28;20039;-57
2023/10/22 10:14:47;;;;;;;3.00;1.08;;;10.40;99.90;;;;;;4980391;28;20047;-58
2023/10/22 10:17:17;;;;;;;3.60;1.20;;;10.50;99.90;;;;;;4981403;28;20046;-58
2023/10/22 10:19:47;;;;;;;8.05;0.98;;;10.60;99.90;;;;;;4979245;28;20054;-58
2023/10/22 10:22:40;;;;;;;3.05;1.13;;;10.60;99.90;;;;;;4991858;28;20046;-59
2023/10/22 10:25:28;;;;;;;2.88;0.90;;;10.80;99.90;;;;;;4989266;28;20042;-58
2023/10/22 10:28:03;;;;;;;2.55;0.63;;;10.80;99.90;;;;;;4978824;28;20410;-58
2023/10/22 10:30:32;;;;;;;3.28;1.00;;;10.90;99.90;;;;;;4979246;28;20050;-58
2023/10/22 10:33:03;;;;;;;6.60;1.00;;;11.00;99.90;;;;;;4983095;28;20042;-58
2023/10/22 10:35:48;;;;;;;3.35;0.70;;;11.00;99.90;;;;;;4961439;28;20051;-58
2023/10/22 10:38:18;;;;;;;6.18;1.02;;;11.10;99.90;;;;;;4985942;28;20051;-58
2023/10/22 10:40:48;;;;;;;4.38;1.38;;;11.20;99.90;;;;;;4988158;28;20532;-58
2023/10/22 10:43:17;;;;;;;3.70;1.10;;;11.30;99.90;;;;;;4975966;28;20057;-58
2023/10/22 10:46:42;;;;;;;4.53;1.15;;;11.40;99.90;;;;;;4991621;28;20042;-58
2023/10/22 10:49:13;;;;;;;4.75;1.13;;;11.40;99.90;;;;;;4967152;28;20054;-58
2023/10/22 10:51:59;;;;;;;5.28;1.30;;;11.50;99.90;;;;;;4967624;28;20046;-57
2023/10/22 10:54:27;;;;;;;2.60;1.35;;;11.60;99.90;;;;;;4965278;28;20062;-58
2023/10/22 10:56:55;;;;;;;4.18;1.15;;;11.70;99.90;;;;;;4977936;28;20046;-58
2023/10/22 10:59:25;;;;;;;4.85;1.30;;;11.80;99.90;;;;;;4973825;28;20267;-59
2023/10/22 11:02:07;;;;;;;4.93;1.03;;;12.00;99.90;;;;;;4989411;28;20053;-58
2023/10/22 11:04:37;;;;;;;1.60;0.90;;;12.10;99.90;;;;;;4987822;28;20296;-58
2023/10/22 11:07:06;;;;;;;4.13;1.05;;;12.40;99.90;;;;;;4991422;28;20514;-59
2023/10/22 11:09:53;;;;;;;3.17;1.17;;;12.50;99.90;;;;;;4972402;28;20043;-59
2023/10/22 11:12:21;;;;;;;3.00;0.80;;;12.80;99.90;;;;;;4971657;28;20415;-59
2023/10/22 11:14:55;;;;;;;3.05;0.80;;;13.00;99.90;;;;;;4982690;28;20043;-60
2023/10/22 11:17:24;;;;;;;7.35;1.10;;;13.20;99.90;;;;;;4987406;28;20047;-59
2023/10/22 11:19:52;;;;;;;7.53;1.40;;;13.50;99.90;;;;;;4978156;28;20604;-58
2023/10/22 11:22:20;;;;;;;4.55;0.77;;;13.50;99.90;;;;;;4986806;28;20062;-59
2023/10/22 11:24:49;;;;;;;4.05;1.08;;;13.70;99.90;;;;;;4990145;28;20047;-58
2023/10/22 11:27:18;;;;;;;3.25;1.13;;;13.80;99.90;;;;;;4989147;28;20521;-59
2023/10/22 11:29:50;;;;;;;5.60;1.23;;;14.00;99.90;;;;;;4973016;28;20058;-58
2023/10/22 11:32:21;;;;;;;5.88;1.30;;;14.20;99.90;;;;;;4980446;28;20084;-59
2023/10/22 11:35:11;;;;;;;2.75;1.02;;;14.30;99.90;;;;;;4976173;28;20050;-59
2023/10/22 11:37:41;;;;;;;7.83;1.43;;;14.30;99.90;;;;;;4970775;28;20046;-59
2023/10/22 11:40:30;;;;;;;2.20;0.88;;;14.40;99.90;;;;;;4978919;28;20049;-59
2023/10/22 11:43:05;;;;;;;6.05;1.25;;;14.60;99.90;;;;;;4988299;28;20042;-59
2023/10/22 11:45:36;;;;;;;5.38;1.00;;;14.90;99.90;;;;;;4982081;28;20379;-58
2023/10/22 11:48:14;;;;;;;4.47;1.00;;;15.20;99.90;;;;;;4972418;28;20070;-59
2023/10/22 11:50:49;;;;;;;6.55;1.10;;;15.60;99.90;;;;;;4970867;28;20057;-60
2023/10/22 11:53:17;;;;;;;4.60;1.10;;;15.80;99.90;;;;;;4982135;28;20050;-58
2023/10/22 11:55:45;;;;;;;4.90;1.10;;;16.10;99.90;;;;;;4989868;28;20038;-60
2023/10/22 11:58:17;;;;;;;2.17;0.80;;;16.30;99.90;;;;;;4989861;28;20050;-59
2023/10/22 12:00:48;;;;;;;4.38;1.08;;;16.50;99.90;;;;;;4987966;28;20046;-59
2023/10/22 12:03:16;;;;;;;5.10;1.05;;;16.80;99.90;;;;;;4969817;28;20061;-59
2023/10/22 12:05:45;;;;;;;4.82;1.15;;;17.00;99.90;;;;;;4984893;28;20065;-61
2023/10/22 12:08:12;;;;;;;3.88;1.23;;;17.00;99.90;;;;;;4988687;28;20058;-59
2023/10/22 12:10:41;;;;;;;4.72;1.38;;;17.20;99.90;;;;;;4988442;28;20046;-59
2023/10/22 12:13:10;;;;;;;4.88;1.98;;;17.40;99.90;;;;;;4975980;28;20061;-61
2023/10/22 12:15:38;;;;;;;5.55;1.60;;;17.70;99.90;;;;;;4988712;28;20403;-59
2023/10/22 12:18:07;;;;;;;3.83;1.10;;;17.80;99.90;;;;;;4977213;28;20090;-60
2023/10/22 12:20:35;;;;;;;3.85;0.98;;;17.60;99.90;;;;;;4981251;28;20047;-60
2023/10/22 12:23:03;;;;;;;6.25;1.00;;;17.30;99.90;;;;;;4986334;28;20065;-59
2023/10/22 12:25:31;;;;;;;4.38;0.95;;;16.90;99.90;;;;;;4988556;28;20540;-60
2023/10/22 12:27:59;;;;;;;2.92;0.88;;;16.60;99.90;;;;;;4984716;28;20050;-59
2023/10/22 12:30:27;;;;;;;4.38;1.15;;;16.40;99.90;;;;;;4974326;28;20070;-59
2023/10/22 12:32:55;;;;;;;3.22;1.10;;;16.30;99.90;;;;;;4973992;28;20063;-59
2023/10/22 12:35:22;;;;;;;4.40;0.93;;;16.10;99.90;;;;;;4989384;28;20483;-59
2023/10/22 12:37:51;;;;;;;2.03;0.75;;;15.90;99.90;;;;;;4973071;28;20050;-59
2023/10/22 12:40:19;;;;;;;4.82;1.20;;;15.80;99.90;;;;;;4985786;28;20043;-60
2023/10/22 12:42:47;;;;;;;3.53;0.95;;;15.80;99.90;;;;;;4978677;28;20053;-59
2023/10/22 12:45:14;;;;;;;4.57;0.77;;;15.60;99.90;;;;;;4988206;28;20057;-59
2023/10/22 12:47:42;;;;;;;3.17;0.75;;;15.50;99.90;;;;;;4982900;28;20057;-59
2023/10/22 12:50:10;;;;;;;3.30;0.90;;;15.30;99.90;;;;;;4988635;28;20038;-59
2023/10/22 12:52:37;;;;;;;4.38;1.08;;;15.20;99.90;;;;;;4978896;28;20069;-59
2023/10/22 12:55:06;;;;;;;2.08;0.60;;;15.40;99.90;;;;;;4985962;28;20053;-60
2023/10/22 12:57:33;;;;;;;2.35;0.60;;;15.50;99.90;;;;;;4975893;28;20042;-59
2023/10/22 13:00:10;;;;;;;4.00;1.00;;;15.60;99.90;;;;;;4978964;28;20034;-58
2023/10/22 13:02:38;;;;;;;3.20;0.73;;;15.70;99.90;;;;;;4969960;28;20411;-59
2023/10/22 13:05:07;;;;;;;5.53;1.00;;;15.60;99.90;;;;;;4986243;28;20054;-60
2023/10/22 13:07:36;;;;;;;2.15;0.98;;;15.50;99.90;;;;;;4971951;28;20043;-59